sensor_id;sensor_type;location;lat;lon;timestamp;temperature;humidity
67196;DHT22;54122;53.538;49.366;2023-04-29T00:00:04;9.50;80.00
67196;DHT22;54122;53.538;49.366;2023-04-29T00:02:34;9.50;80.00
67196;DHT22;54122;53.538;49.366;2023-04-29T00:05:01;9.50;80.00
67196;DHT22;54122;53.538;49.366;2023-04-29T00:07:31;9.50;80.00
67196;DHT22;54122;53.538;49.366;2023-04-29T00:09:57;9.50;80.90
67196;DHT22;54122;53.538;49.366;2023-04-29T00:12:24;9.40;79.80
67196;DHT22;54122;53.538;49.366;2023-04-29T00:14:50;9.40;79.80
67196;DHT22;54122;53.538;49.366;2023-04-29T00:17:16;9.40;79.80
67196;DHT22;54122;53.538;49.366;2023-04-29T00:19:47;9.30;79.70
67196;DHT22;54122;53.538;49.366;2023-04-29T00:22:16;9.30;79.70
67196;DHT22;54122;53.538;49.366;2023-04-29T00:24:44;9.30;79.80
67196;DHT22;54122;53.538;49.366;2023-04-29T00:27:10;9.30;80.00
67196;DHT22;54122;53.538;49.366;2023-04-29T00:29:37;9.30;80.00
67196;DHT22;54122;53.538;49.366;2023-04-29T00:32:03;9.20;79.90
67196;DHT22;54122;53.538;49.366;2023-04-29T00:34:30;9.20;80.10
67196;DHT22;54122;53.538;49.366;2023-04-29T00:37:13;9.20;80.20
67196;DHT22;54122;53.538;49.366;2023-04-29T00:39:39;9.20;80.20
67196;DHT22;54122;53.538;49.366;2023-04-29T00:42:05;9.20;80.40
67196;DHT22;54122;53.538;49.366;2023-04-29T00:44:32;9.20;80.40
67196;DHT22;54122;53.538;49.366;2023-04-29T00:46:58;9.20;80.20
67196;DHT22;54122;53.538;49.366;2023-04-29T00:49:25;9.20;80.40
67196;DHT22;54122;53.538;49.366;2023-04-29T00:51:55;9.10;80.30
67196;DHT22;54122;53.538;49.366;2023-04-29T00:54:22;9.20;80.20
67196;DHT22;54122;53.538;49.366;2023-04-29T00:56:49;9.20;79.90
67196;DHT22;54122;53.538;49.366;2023-04-29T00:59:16;9.30;79.90
67196;DHT22;54122;53.538;49.366;2023-04-29T01:01:42;9.30;79.70
67196;DHT22;54122;53.538;49.366;2023-04-29T01:04:09;9.30;79.50
67196;DHT22;54122;53.538;49.366;2023-04-29T01:10:01;9.30;79.20
67196;DHT22;54122;53.538;49.366;2023-04-29T01:18:14;9.60;78.40
67196;DHT22;54122;53.538;49.366;2023-04-29T01:20:44;9.60;78.00
67196;DHT22;54122;53.538;49.366;2023-04-29T01:23:10;9.70;78.00
67196;DHT22;54122;53.538;49.366;2023-04-29T01:25:37;9.70;77.80
67196;DHT22;54122;53.538;49.366;2023-04-29T01:28:16;9.90;77.70
67196;DHT22;54122;53.538;49.366;2023-04-29T01:31:06;9.90;77.30
67196;DHT22;54122;53.538;49.366;2023-04-29T01:33:50;10.00;77.10
67196;DHT22;54122;53.538;49.366;2023-04-29T01:36:22;10.10;76.60
67196;DHT22;54122;53.538;49.366;2023-04-29T01:44:14;10.40;75.50
67196;DHT22;54122;53.538;49.366;2023-04-29T01:46:43;10.40;75.30
67196;DHT22;54122;53.538;49.366;2023-04-29T01:49:12;10.40;75.40
67196;DHT22;54122;53.538;49.366;2023-04-29T01:51:38;10.40;75.20
67196;DHT22;54122;53.538;49.366;2023-04-29T01:54:04;10.50;75.10
67196;DHT22;54122;53.538;49.366;2023-04-29T01:56:32;10.80;75.10
67196;DHT22;54122;53.538;49.366;2023-04-29T01:58:58;11.40;73.10
67196;DHT22;54122;53.538;49.366;2023-04-29T02:01:25;11.70;71.60
67196;DHT22;54122;53.538;49.366;2023-04-29T02:03:51;11.80;71.20
67196;DHT22;54122;53.538;49.366;2023-04-29T02:06:17;12.20;70.80
67196;DHT22;54122;53.538;49.366;2023-04-29T02:08:44;12.80;69.30
67196;DHT22;54122;53.538;49.366;2023-04-29T02:11:10;13.80;66.60
67196;DHT22;54122;53.538;49.366;2023-04-29T02:13:36;14.70;63.50
67196;DHT22;54122;53.538;49.366;2023-04-29T02:16:09;15.60;60.10
67196;DHT22;54122;53.538;49.366;2023-04-29T02:18:36;16.50;56.80
67196;DHT22;54122;53.538;49.366;2023-04-29T02:21:03;17.10;54.30
67196;DHT22;54122;53.538;49.366;2023-04-29T02:23:29;17.80;50.50
67196;DHT22;54122;53.538;49.366;2023-04-29T02:25:55;18.40;49.20
67196;DHT22;54122;53.538;49.366;2023-04-29T02:28:22;19.00;47.00
67196;DHT22;54122;53.538;49.366;2023-04-29T02:30:51;19.70;44.30
67196;DHT22;54122;53.538;49.366;2023-04-29T02:33:17;20.30;42.80
67196;DHT22;54122;53.538;49.366;2023-04-29T02:35:43;20.80;40.90
67196;DHT22;54122;53.538;49.366;2023-04-29T02:38:10;21.20;39.60
67196;DHT22;54122;53.538;49.366;2023-04-29T02:40:44;21.60;38.90
67196;DHT22;54122;53.538;49.366;2023-04-29T02:43:11;22.10;37.50
67196;DHT22;54122;53.538;49.366;2023-04-29T02:45:38;22.50;35.50
67196;DHT22;54122;53.538;49.366;2023-04-29T02:48:05;22.90;35.20
67196;DHT22;54122;53.538;49.366;2023-04-29T02:50:32;23.40;33.60
67196;DHT22;54122;53.538;49.366;2023-04-29T02:52:58;23.70;32.20
67196;DHT22;54122;53.538;49.366;2023-04-29T02:55:24;23.80;31.80
67196;DHT22;54122;53.538;49.366;2023-04-29T02:57:51;24.30;31.40
67196;DHT22;54122;53.538;49.366;2023-04-29T03:00:18;24.50;29.80
67196;DHT22;54122;53.538;49.366;2023-04-29T03:02:44;24.70;29.60
67196;DHT22;54122;53.538;49.366;2023-04-29T03:05:10;24.80;28.90
67196;DHT22;54122;53.538;49.366;2023-04-29T03:07:36;24.90;28.90
67196;DHT22;54122;53.538;49.366;2023-04-29T03:10:03;25.30;28.30
67196;DHT22;54122;53.538;49.366;2023-04-29T03:12:30;25.60;27.60
67196;DHT22;54122;53.538;49.366;2023-04-29T03:14:56;25.80;27.30
67196;DHT22;54122;53.538;49.366;2023-04-29T03:17:22;26.20;27.20
67196;DHT22;54122;53.538;49.366;2023-04-29T03:19:48;26.60;26.70
67196;DHT22;54122;53.538;49.366;2023-04-29T03:22:15;27.00;26.00
67196;DHT22;54122;53.538;49.366;2023-04-29T03:24:42;27.20;25.60
67196;DHT22;54122;53.538;49.366;2023-04-29T03:27:09;27.30;25.30
67196;DHT22;54122;53.538;49.366;2023-04-29T03:29:36;27.40;25.40
67196;DHT22;54122;53.538;49.366;2023-04-29T03:32:02;27.60;25.10
67196;DHT22;54122;53.538;49.366;2023-04-29T03:34:28;27.80;25.10
67196;DHT22;54122;53.538;49.366;2023-04-29T03:36:55;28.30;24.70
67196;DHT22;54122;53.538;49.366;2023-04-29T03:39:22;28.60;23.90
67196;DHT22;54122;53.538;49.366;2023-04-29T03:41:48;28.60;23.80
67196;DHT22;54122;53.538;49.366;2023-04-29T03:44:14;28.70;23.60
67196;DHT22;54122;53.538;49.366;2023-04-29T03:46:41;28.80;23.50
67196;DHT22;54122;53.538;49.366;2023-04-29T03:49:07;28.50;23.50
67196;DHT22;54122;53.538;49.366;2023-04-29T03:51:33;28.80;23.50
67196;DHT22;54122;53.538;49.366;2023-04-29T03:53:59;29.10;23.20
67196;DHT22;54122;53.538;49.366;2023-04-29T03:56:26;29.10;22.80
67196;DHT22;54122;53.538;49.366;2023-04-29T03:58:52;29.20;22.70
67196;DHT22;54122;53.538;49.366;2023-04-29T04:01:19;29.00;22.90
67196;DHT22;54122;53.538;49.366;2023-04-29T04:03:45;29.00;22.80
67196;DHT22;54122;53.538;49.366;2023-04-29T04:06:11;28.90;22.90
67196;DHT22;54122;53.538;49.366;2023-04-29T04:08:38;28.90;23.00
67196;DHT22;54122;53.538;49.366;2023-04-29T04:11:06;29.10;23.10
67196;DHT22;54122;53.538;49.366;2023-04-29T04:13:33;29.20;22.40
67196;DHT22;54122;53.538;49.366;2023-04-29T04:16:00;29.60;22.50
67196;DHT22;54122;53.538;49.366;2023-04-29T04:18:26;30.20;21.80
67196;DHT22;54122;53.538;49.366;2023-04-29T04:20:53;30.40;21.30
67196;DHT22;54122;53.538;49.366;2023-04-29T04:23:19;30.10;21.10
67196;DHT22;54122;53.538;49.366;2023-04-29T04:25:48;29.90;21.50
67196;DHT22;54122;53.538;49.366;2023-04-29T04:28:14;29.90;21.60
67196;DHT22;54122;53.538;49.366;2023-04-29T04:30:41;30.00;21.10
67196;DHT22;54122;53.538;49.366;2023-04-29T04:33:08;30.10;21.10
67196;DHT22;54122;53.538;49.366;2023-04-29T04:35:35;30.40;21.10
67196;DHT22;54122;53.538;49.366;2023-04-29T04:38:01;30.70;21.00
67196;DHT22;54122;53.538;49.366;2023-04-29T04:40:27;31.10;20.80
67196;DHT22;54122;53.538;49.366;2023-04-29T04:42:54;31.50;20.40
67196;DHT22;54122;53.538;49.366;2023-04-29T04:45:20;31.90;20.00
67196;DHT22;54122;53.538;49.366;2023-04-29T04:47:46;31.80;19.70
67196;DHT22;54122;53.538;49.366;2023-04-29T04:50:13;31.60;19.30
67196;DHT22;54122;53.538;49.366;2023-04-29T04:52:41;31.40;19.40
67196;DHT22;54122;53.538;49.366;2023-04-29T04:55:08;31.30;19.50
67196;DHT22;54122;53.538;49.366;2023-04-29T04:57:34;31.10;19.30
67196;DHT22;54122;53.538;49.366;2023-04-29T05:00:00;30.80;19.80
67196;DHT22;54122;53.538;49.366;2023-04-29T05:02:27;31.00;20.00
67196;DHT22;54122;53.538;49.366;2023-04-29T05:04:53;31.70;19.80
67196;DHT22;54122;53.538;49.366;2023-04-29T05:07:19;32.40;18.90
67196;DHT22;54122;53.538;49.366;2023-04-29T05:09:45;32.60;18.60
67196;DHT22;54122;53.538;49.366;2023-04-29T05:12:12;32.40;18.40
67196;DHT22;54122;53.538;49.366;2023-04-29T05:14:38;32.20;18.60
67196;DHT22;54122;53.538;49.366;2023-04-29T05:17:23;32.20;18.50
67196;DHT22;54122;53.538;49.366;2023-04-29T05:19:49;31.90;18.70
67196;DHT22;54122;53.538;49.366;2023-04-29T05:22:16;31.80;18.70
67196;DHT22;54122;53.538;49.366;2023-04-29T05:24:42;32.00;18.70
67196;DHT22;54122;53.538;49.366;2023-04-29T05:27:08;32.20;18.20
67196;DHT22;54122;53.538;49.366;2023-04-29T05:29:34;32.30;18.20
67196;DHT22;54122;53.538;49.366;2023-04-29T05:32:01;32.10;18.20
67196;DHT22;54122;53.538;49.366;2023-04-29T05:37:30;32.70;17.60
67196;DHT22;54122;53.538;49.366;2023-04-29T05:39:57;32.60;17.60
67196;DHT22;54122;53.538;49.366;2023-04-29T05:45:09;32.70;17.50
67196;DHT22;54122;53.538;49.366;2023-04-29T05:50:58;32.70;17.40
67196;DHT22;54122;53.538;49.366;2023-04-29T05:53:24;32.90;17.10
67196;DHT22;54122;53.538;49.366;2023-04-29T05:55:50;32.90;16.90
67196;DHT22;54122;53.538;49.366;2023-04-29T05:58:17;32.70;16.90
67196;DHT22;54122;53.538;49.366;2023-04-29T06:00:43;32.80;16.70
67196;DHT22;54122;53.538;49.366;2023-04-29T06:03:09;33.10;16.70
67196;DHT22;54122;53.538;49.366;2023-04-29T06:05:37;33.20;16.30
67196;DHT22;54122;53.538;49.366;2023-04-29T06:08:04;33.10;16.30
67196;DHT22;54122;53.538;49.366;2023-04-29T06:10:30;33.00;16.20
67196;DHT22;54122;53.538;49.366;2023-04-29T06:12:58;32.90;16.30
67196;DHT22;54122;53.538;49.366;2023-04-29T06:18:09;33.00;16.20
67196;DHT22;54122;53.538;49.366;2023-04-29T06:20:35;32.90;16.10
67196;DHT22;54122;53.538;49.366;2023-04-29T06:23:01;32.80;16.10
67196;DHT22;54122;53.538;49.366;2023-04-29T06:25:27;32.80;16.10
67196;DHT22;54122;53.538;49.366;2023-04-29T06:27:55;32.80;17.00
67196;DHT22;54122;53.538;49.366;2023-04-29T06:30:21;33.00;16.20
67196;DHT22;54122;53.538;49.366;2023-04-29T06:32:48;33.10;15.90
67196;DHT22;54122;53.538;49.366;2023-04-29T06:35:14;33.30;15.70
67196;DHT22;54122;53.538;49.366;2023-04-29T06:37:40;33.20;15.60
67196;DHT22;54122;53.538;49.366;2023-04-29T06:40:25;33.00;15.50
67196;DHT22;54122;53.538;49.366;2023-04-29T06:43:09;33.00;16.10
67196;DHT22;54122;53.538;49.366;2023-04-29T06:45:36;33.20;16.10
67196;DHT22;54122;53.538;49.366;2023-04-29T06:48:20;33.70;15.70
67196;DHT22;54122;53.538;49.366;2023-04-29T06:50:54;34.00;15.30
67196;DHT22;54122;53.538;49.366;2023-04-29T06:53:21;34.20;15.10
67196;DHT22;54122;53.538;49.366;2023-04-29T06:55:47;34.10;15.00
67196;DHT22;54122;53.538;49.366;2023-04-29T06:58:17;34.00;15.10
67196;DHT22;54122;53.538;49.366;2023-04-29T07:00:48;33.80;15.10
67196;DHT22;54122;53.538;49.366;2023-04-29T07:03:16;33.50;15.30
67196;DHT22;54122;53.538;49.366;2023-04-29T07:06:02;33.00;15.50
67196;DHT22;54122;53.538;49.366;2023-04-29T07:08:28;32.70;16.10
67196;DHT22;54122;53.538;49.366;2023-04-29T07:13:40;33.30;15.90
67196;DHT22;54122;53.538;49.366;2023-04-29T07:16:26;33.40;15.80
67196;DHT22;54122;53.538;49.366;2023-04-29T07:18:53;33.60;15.40
67196;DHT22;54122;53.538;49.366;2023-04-29T07:21:19;33.50;15.20
67196;DHT22;54122;53.538;49.366;2023-04-29T07:23:45;33.50;15.50
67196;DHT22;54122;53.538;49.366;2023-04-29T07:26:16;33.30;15.50
67196;DHT22;54122;53.538;49.366;2023-04-29T07:28:43;33.10;15.60
67196;DHT22;54122;53.538;49.366;2023-04-29T07:31:09;33.20;15.90
67196;DHT22;54122;53.538;49.366;2023-04-29T07:33:55;33.30;15.40
67196;DHT22;54122;53.538;49.366;2023-04-29T07:36:22;33.00;15.70
67196;DHT22;54122;53.538;49.366;2023-04-29T07:38:48;33.00;15.60
67196;DHT22;54122;53.538;49.366;2023-04-29T07:41:32;32.70;16.00
67196;DHT22;54122;53.538;49.366;2023-04-29T07:43:59;32.50;16.30
67196;DHT22;54122;53.538;49.366;2023-04-29T07:46:25;32.50;15.90
67196;DHT22;54122;53.538;49.366;2023-04-29T07:48:51;32.10;16.40
67196;DHT22;54122;53.538;49.366;2023-04-29T07:51:18;31.80;16.70
67196;DHT22;54122;53.538;49.366;2023-04-29T07:53:44;32.00;16.70
67196;DHT22;54122;53.538;49.366;2023-04-29T07:56:29;32.50;16.50
67196;DHT22;54122;53.538;49.366;2023-04-29T07:58:56;33.20;16.20
67196;DHT22;54122;53.538;49.366;2023-04-29T08:01:24;33.40;15.70
67196;DHT22;54122;53.538;49.366;2023-04-29T08:03:50;33.50;15.90
67196;DHT22;54122;53.538;49.366;2023-04-29T08:06:17;33.70;15.60
67196;DHT22;54122;53.538;49.366;2023-04-29T08:08:45;33.60;15.60
67196;DHT22;54122;53.538;49.366;2023-04-29T08:11:19;33.40;15.50
67196;DHT22;54122;53.538;49.366;2023-04-29T08:13:46;33.30;15.80
67196;DHT22;54122;53.538;49.366;2023-04-29T08:16:31;33.00;15.80
67196;DHT22;54122;53.538;49.366;2023-04-29T08:19:16;32.90;16.00
67196;DHT22;54122;53.538;49.366;2023-04-29T08:21:42;32.90;16.10
67196;DHT22;54122;53.538;49.366;2023-04-29T08:24:08;32.90;16.10
67196;DHT22;54122;53.538;49.366;2023-04-29T08:26:53;33.00;16.20
67196;DHT22;54122;53.538;49.366;2023-04-29T08:29:19;33.00;16.20
67196;DHT22;54122;53.538;49.366;2023-04-29T08:34:30;32.80;16.10
67196;DHT22;54122;53.538;49.366;2023-04-29T08:37:17;32.60;16.40
67196;DHT22;54122;53.538;49.366;2023-04-29T08:42:47;32.40;16.70
67196;DHT22;54122;53.538;49.366;2023-04-29T08:45:32;32.50;16.40
67196;DHT22;54122;53.538;49.366;2023-04-29T08:48:00;32.20;16.60
67196;DHT22;54122;53.538;49.366;2023-04-29T08:50:28;32.20;16.90
67196;DHT22;54122;53.538;49.366;2023-04-29T08:52:55;32.00;16.90
67196;DHT22;54122;53.538;49.366;2023-04-29T08:55:41;31.40;17.40
67196;DHT22;54122;53.538;49.366;2023-04-29T09:00:53;32.00;17.10
67196;DHT22;54122;53.538;49.366;2023-04-29T09:03:41;32.20;16.80
67196;DHT22;54122;53.538;49.366;2023-04-29T09:06:10;32.30;17.10
67196;DHT22;54122;53.538;49.366;2023-04-29T09:08:57;32.30;16.30
67196;DHT22;54122;53.538;49.366;2023-04-29T09:14:08;32.00;16.60
67196;DHT22;54122;53.538;49.366;2023-04-29T09:16:34;31.80;16.70
67196;DHT22;54122;53.538;49.366;2023-04-29T09:19:03;31.60;17.20
67196;DHT22;54122;53.538;49.366;2023-04-29T09:21:53;31.50;17.00
67196;DHT22;54122;53.538;49.366;2023-04-29T09:27:26;30.40;18.20
67196;DHT22;54122;53.538;49.366;2023-04-29T09:30:00;30.10;18.40
67196;DHT22;54122;53.538;49.366;2023-04-29T09:38:14;29.50;18.80
67196;DHT22;54122;53.538;49.366;2023-04-29T09:40:42;29.30;19.00
67196;DHT22;54122;53.538;49.366;2023-04-29T09:43:13;29.00;19.10
67196;DHT22;54122;53.538;49.366;2023-04-29T09:45:41;28.60;19.50
67196;DHT22;54122;53.538;49.366;2023-04-29T09:48:08;28.40;19.80
67196;DHT22;54122;53.538;49.366;2023-04-29T09:50:36;28.20;19.50
67196;DHT22;54122;53.538;49.366;2023-04-29T09:53:03;28.20;20.00
67196;DHT22;54122;53.538;49.366;2023-04-29T09:55:31;28.20;20.10
67196;DHT22;54122;53.538;49.366;2023-04-29T09:57:57;28.00;19.70
67196;DHT22;54122;53.538;49.366;2023-04-29T10:00:42;28.00;19.90
67196;DHT22;54122;53.538;49.366;2023-04-29T10:03:08;28.00;19.90
67196;DHT22;54122;53.538;49.366;2023-04-29T10:05:54;28.00;20.10
67196;DHT22;54122;53.538;49.366;2023-04-29T10:08:40;28.00;20.00
67196;DHT22;54122;53.538;49.366;2023-04-29T10:11:25;28.10;20.10
67196;DHT22;54122;53.538;49.366;2023-04-29T10:16:48;28.00;19.60
67196;DHT22;54122;53.538;49.366;2023-04-29T10:19:37;28.00;19.70
67196;DHT22;54122;53.538;49.366;2023-04-29T10:22:28;28.00;19.90
67196;DHT22;54122;53.538;49.366;2023-04-29T10:25:17;27.80;19.80
67196;DHT22;54122;53.538;49.366;2023-04-29T10:30:30;27.60;19.60
67196;DHT22;54122;53.538;49.366;2023-04-29T10:32:59;27.50;19.80
67196;DHT22;54122;53.538;49.366;2023-04-29T10:38:49;27.60;19.90
67196;DHT22;54122;53.538;49.366;2023-04-29T10:41:22;27.60;20.20
67196;DHT22;54122;53.538;49.366;2023-04-29T10:52:15;27.30;20.80
67196;DHT22;54122;53.538;49.366;2023-04-29T10:55:01;27.50;20.70
67196;DHT22;54122;53.538;49.366;2023-04-29T10:57:29;27.80;20.30
67196;DHT22;54122;53.538;49.366;2023-04-29T11:00:27;27.80;20.30
67196;DHT22;54122;53.538;49.366;2023-04-29T11:02:54;28.10;20.60
67196;DHT22;54122;53.538;49.366;2023-04-29T11:05:34;28.10;19.80
67196;DHT22;54122;53.538;49.366;2023-04-29T11:11:08;27.70;20.20
67196;DHT22;54122;53.538;49.366;2023-04-29T11:13:53;27.60;20.40
67196;DHT22;54122;53.538;49.366;2023-04-29T11:16:25;27.60;20.40
67196;DHT22;54122;53.538;49.366;2023-04-29T11:19:13;27.60;20.40
67196;DHT22;54122;53.538;49.366;2023-04-29T11:21:40;27.40;20.80
67196;DHT22;54122;53.538;49.366;2023-04-29T11:24:06;27.30;21.00
67196;DHT22;54122;53.538;49.366;2023-04-29T11:26:36;27.30;20.70
67196;DHT22;54122;53.538;49.366;2023-04-29T11:29:04;27.30;20.70
67196;DHT22;54122;53.538;49.366;2023-04-29T11:31:31;27.30;20.90
67196;DHT22;54122;53.538;49.366;2023-04-29T11:33:58;27.30;21.00
67196;DHT22;54122;53.538;49.366;2023-04-29T11:36:25;27.40;21.30
67196;DHT22;54122;53.538;49.366;2023-04-29T11:38:52;27.50;21.10
67196;DHT22;54122;53.538;49.366;2023-04-29T11:41:19;27.60;21.00
67196;DHT22;54122;53.538;49.366;2023-04-29T11:43:46;27.50;20.90
67196;DHT22;54122;53.538;49.366;2023-04-29T11:47:03;27.40;20.90
67196;DHT22;54122;53.538;49.366;2023-04-29T11:52:39;27.40;21.10
67196;DHT22;54122;53.538;49.366;2023-04-29T11:55:10;27.40;21.10
67196;DHT22;54122;53.538;49.366;2023-04-29T11:57:37;27.40;20.90
67196;DHT22;54122;53.538;49.366;2023-04-29T12:00:04;27.30;20.80
67196;DHT22;54122;53.538;49.366;2023-04-29T12:02:32;27.20;21.00
67196;DHT22;54122;53.538;49.366;2023-04-29T12:05:06;27.20;21.20
67196;DHT22;54122;53.538;49.366;2023-04-29T12:07:36;27.20;21.10
67196;DHT22;54122;53.538;49.366;2023-04-29T12:10:10;27.10;21.10
67196;DHT22;54122;53.538;49.366;2023-04-29T12:12:37;27.10;21.10
67196;DHT22;54122;53.538;49.366;2023-04-29T12:15:08;27.10;21.00
67196;DHT22;54122;53.538;49.366;2023-04-29T12:17:35;27.10;21.50
67196;DHT22;54122;53.538;49.366;2023-04-29T12:20:01;27.10;21.10
67196;DHT22;54122;53.538;49.366;2023-04-29T12:22:31;27.10;21.30
67196;DHT22;54122;53.538;49.366;2023-04-29T12:24:58;27.10;21.00
67196;DHT22;54122;53.538;49.366;2023-04-29T12:27:24;27.00;21.20
67196;DHT22;54122;53.538;49.366;2023-04-29T12:29:51;27.00;21.00
67196;DHT22;54122;53.538;49.366;2023-04-29T12:32:37;27.00;20.80
67196;DHT22;54122;53.538;49.366;2023-04-29T12:35:03;27.00;21.10
67196;DHT22;54122;53.538;49.366;2023-04-29T12:37:30;26.90;21.00
67196;DHT22;54122;53.538;49.366;2023-04-29T12:40:15;26.90;21.00
67196;DHT22;54122;53.538;49.366;2023-04-29T12:42:42;26.90;20.90
67196;DHT22;54122;53.538;49.366;2023-04-29T12:45:30;26.80;21.10
67196;DHT22;54122;53.538;49.366;2023-04-29T12:48:16;26.80;21.10
67196;DHT22;54122;53.538;49.366;2023-04-29T12:50:43;26.60;22.00
67196;DHT22;54122;53.538;49.366;2023-04-29T12:53:32;26.60;21.30
67196;DHT22;54122;53.538;49.366;2023-04-29T12:55:59;26.60;21.50
67196;DHT22;54122;53.538;49.366;2023-04-29T12:58:29;26.70;21.80
67196;DHT22;54122;53.538;49.366;2023-04-29T13:00:56;26.70;21.30
67196;DHT22;54122;53.538;49.366;2023-04-29T13:03:22;26.70;21.50
67196;DHT22;54122;53.538;49.366;2023-04-29T13:05:49;26.60;21.40
67196;DHT22;54122;53.538;49.366;2023-04-29T13:08:18;26.60;21.50
67196;DHT22;54122;53.538;49.366;2023-04-29T13:10:45;26.60;21.60
67196;DHT22;54122;53.538;49.366;2023-04-29T13:13:11;26.60;21.70
67196;DHT22;54122;53.538;49.366;2023-04-29T13:18:23;26.50;21.50
67196;DHT22;54122;53.538;49.366;2023-04-29T13:20:49;26.50;21.80
67196;DHT22;54122;53.538;49.366;2023-04-29T13:23:34;26.40;21.70
67196;DHT22;54122;53.538;49.366;2023-04-29T13:26:19;26.40;21.60
67196;DHT22;54122;53.538;49.366;2023-04-29T13:28:45;26.30;21.50
67196;DHT22;54122;53.538;49.366;2023-04-29T13:31:12;26.30;21.60
67196;DHT22;54122;53.538;49.366;2023-04-29T13:33:57;26.30;21.60
67196;DHT22;54122;53.538;49.366;2023-04-29T13:39:26;26.10;21.80
67196;DHT22;54122;53.538;49.366;2023-04-29T13:41:52;26.10;21.90
67196;DHT22;54122;53.538;49.366;2023-04-29T13:44:37;26.10;22.20
67196;DHT22;54122;53.538;49.366;2023-04-29T13:47:09;26.10;21.80
67196;DHT22;54122;53.538;49.366;2023-04-29T13:49:37;26.00;21.90
67196;DHT22;54122;53.538;49.366;2023-04-29T13:52:04;25.90;22.20
67196;DHT22;54122;53.538;49.366;2023-04-29T13:54:31;25.90;22.30
67196;DHT22;54122;53.538;49.366;2023-04-29T13:57:16;25.90;22.30
67196;DHT22;54122;53.538;49.366;2023-04-29T14:02:27;25.80;22.50
67196;DHT22;54122;53.538;49.366;2023-04-29T14:04:53;25.80;22.60
67196;DHT22;54122;53.538;49.366;2023-04-29T14:07:20;25.80;22.60
67196;DHT22;54122;53.538;49.366;2023-04-29T14:09:46;25.70;22.50
67196;DHT22;54122;53.538;49.366;2023-04-29T14:12:30;25.70;22.60
67196;DHT22;54122;53.538;49.366;2023-04-29T14:14:57;25.50;22.50
67196;DHT22;54122;53.538;49.366;2023-04-29T14:17:23;25.50;22.60
67196;DHT22;54122;53.538;49.366;2023-04-29T14:22:34;25.20;22.60
67196;DHT22;54122;53.538;49.366;2023-04-29T14:25:00;25.10;23.00
67196;DHT22;54122;53.538;49.366;2023-04-29T14:30:30;24.90;23.10
67196;DHT22;54122;53.538;49.366;2023-04-29T14:32:56;24.70;23.40
67196;DHT22;54122;53.538;49.366;2023-04-29T14:35:23;24.70;23.30
67196;DHT22;54122;53.538;49.366;2023-04-29T14:37:49;24.70;23.50
67196;DHT22;54122;53.538;49.366;2023-04-29T14:40:15;24.60;23.40
67196;DHT22;54122;53.538;49.366;2023-04-29T14:42:41;24.50;23.50
67196;DHT22;54122;53.538;49.366;2023-04-29T14:45:10;24.50;23.60
67196;DHT22;54122;53.538;49.366;2023-04-29T14:47:55;24.50;23.90
67196;DHT22;54122;53.538;49.366;2023-04-29T14:50:40;24.40;24.00
67196;DHT22;54122;53.538;49.366;2023-04-29T14:53:07;24.40;24.10
67196;DHT22;54122;53.538;49.366;2023-04-29T14:55:34;24.30;24.20
67196;DHT22;54122;53.538;49.366;2023-04-29T14:58:00;24.30;24.30
67196;DHT22;54122;53.538;49.366;2023-04-29T15:03:16;24.10;24.80
67196;DHT22;54122;53.538;49.366;2023-04-29T15:05:42;23.90;25.10
67196;DHT22;54122;53.538;49.366;2023-04-29T15:08:09;23.80;25.20
67196;DHT22;54122;53.538;49.366;2023-04-29T15:10:36;23.70;25.20
67196;DHT22;54122;53.538;49.366;2023-04-29T15:13:02;23.70;25.40
67196;DHT22;54122;53.538;49.366;2023-04-29T15:15:30;23.50;25.70
67196;DHT22;54122;53.538;49.366;2023-04-29T15:17:56;23.40;26.50
67196;DHT22;54122;53.538;49.366;2023-04-29T15:20:22;23.30;27.40
67196;DHT22;54122;53.538;49.366;2023-04-29T15:23:07;23.10;28.60
67196;DHT22;54122;53.538;49.366;2023-04-29T15:25:52;22.90;29.00
67196;DHT22;54122;53.538;49.366;2023-04-29T15:28:37;22.70;31.10
67196;DHT22;54122;53.538;49.366;2023-04-29T15:31:03;22.40;31.10
67196;DHT22;54122;53.538;49.366;2023-04-29T15:33:48;22.20;32.40
67196;DHT22;54122;53.538;49.366;2023-04-29T15:36:14;21.80;33.20
67196;DHT22;54122;53.538;49.366;2023-04-29T15:38:41;21.60;34.00
67196;DHT22;54122;53.538;49.366;2023-04-29T15:43:52;21.10;35.10
67196;DHT22;54122;53.538;49.366;2023-04-29T15:49:04;20.70;35.80
67196;DHT22;54122;53.538;49.366;2023-04-29T15:51:31;20.60;36.30
67196;DHT22;54122;53.538;49.366;2023-04-29T15:53:57;20.30;36.70
67196;DHT22;54122;53.538;49.366;2023-04-29T15:56:24;20.20;37.00
67196;DHT22;54122;53.538;49.366;2023-04-29T15:58:50;20.00;37.60
67196;DHT22;54122;53.538;49.366;2023-04-29T16:01:35;19.80;37.90
67196;DHT22;54122;53.538;49.366;2023-04-29T16:04:01;19.60;38.40
67196;DHT22;54122;53.538;49.366;2023-04-29T16:06:28;19.50;38.80
67196;DHT22;54122;53.538;49.366;2023-04-29T16:08:54;19.40;39.20
67196;DHT22;54122;53.538;49.366;2023-04-29T16:11:21;19.20;39.40
67196;DHT22;54122;53.538;49.366;2023-04-29T16:13:48;19.00;39.90
67196;DHT22;54122;53.538;49.366;2023-04-29T16:16:32;18.90;40.30
67196;DHT22;54122;53.538;49.366;2023-04-29T16:18:59;18.80;40.70
67196;DHT22;54122;53.538;49.366;2023-04-29T16:21:25;18.70;41.30
67196;DHT22;54122;53.538;49.366;2023-04-29T16:23:52;18.50;41.90
67196;DHT22;54122;53.538;49.366;2023-04-29T16:29:06;18.20;43.00
67196;DHT22;54122;53.538;49.366;2023-04-29T16:31:32;18.10;43.40
67196;DHT22;54122;53.538;49.366;2023-04-29T16:33:58;18.00;43.80
67196;DHT22;54122;53.538;49.366;2023-04-29T16:36:24;17.80;44.30
67196;DHT22;54122;53.538;49.366;2023-04-29T16:38:51;17.70;44.80
67196;DHT22;54122;53.538;49.366;2023-04-29T16:41:20;17.60;45.00
67196;DHT22;54122;53.538;49.366;2023-04-29T16:43:51;17.60;46.40
67196;DHT22;54122;53.538;49.366;2023-04-29T16:46:37;17.50;45.70
67196;DHT22;54122;53.538;49.366;2023-04-29T16:49:04;17.40;46.00
67196;DHT22;54122;53.538;49.366;2023-04-29T16:51:30;17.30;46.40
67196;DHT22;54122;53.538;49.366;2023-04-29T16:53:58;17.20;46.70
67196;DHT22;54122;53.538;49.366;2023-04-29T16:56:24;17.10;46.90
67196;DHT22;54122;53.538;49.366;2023-04-29T16:58:50;17.10;47.60
67196;DHT22;54122;53.538;49.366;2023-04-29T17:06:48;16.80;48.70
67196;DHT22;54122;53.538;49.366;2023-04-29T17:09:14;16.70;49.10
67196;DHT22;54122;53.538;49.366;2023-04-29T17:11:40;16.60;49.20
67196;DHT22;54122;53.538;49.366;2023-04-29T17:14:07;16.50;49.70
67196;DHT22;54122;53.538;49.366;2023-04-29T17:16:33;16.40;49.80